createdAt,value
2023-06-15T00:11:02.255Z,15.03
2023-06-15T00:31:02.255Z,15.03
2023-06-15T00:51:02.252Z,14.75
2023-06-15T01:11:02.335Z,14.89
2023-06-15T01:31:02.237Z,14.95
2023-06-15T01:51:02.140Z,14.83
2023-06-15T02:11:02.118Z,14.78
2023-06-15T02:31:02.112Z,14.50
2023-06-15T02:51:02.114Z,14.39
2023-06-15T03:11:02.097Z,14.44
2023-06-15T03:31:02.090Z,14.41
2023-06-15T03:51:01.981Z,14.58
2023-06-15T04:11:01.967Z,14.95
2023-06-15T04:31:01.967Z,15.29
2023-06-15T04:51:01.963Z,15.62
2023-06-15T05:11:01.949Z,15.95
2023-06-15T05:31:01.952Z,16.10
2023-06-15T05:51:01.824Z,16.33
2023-06-15T06:11:01.910Z,16.83
2023-06-15T06:31:01.802Z,17.29
2023-06-15T06:51:01.812Z,17.92
2023-06-15T07:11:01.804Z,19.29
2023-06-15T07:31:01.787Z,19.81
2023-06-15T07:51:01.684Z,20.73
2023-06-15T08:11:01.690Z,22.09
2023-06-15T08:31:01.694Z,23.18
2023-06-15T08:51:01.577Z,24.34
2023-06-15T09:11:01.582Z,24.62
2023-06-15T09:31:01.733Z,23.32
2023-06-15T09:51:01.559Z,23.27
2023-06-15T10:11:01.546Z,22.80
2023-06-15T10:31:01.507Z,23.67
2023-06-15T10:51:01.452Z,24.06
2023-06-15T11:11:01.452Z,22.84
2023-06-15T11:31:01.364Z,23.39
2023-06-15T11:51:01.373Z,23.39
2023-06-15T12:11:01.256Z,22.57
2023-06-15T12:31:01.256Z,22.40
2023-06-15T12:51:01.256Z,23.71
2023-06-15T13:11:01.171Z,24.53
2023-06-15T13:31:01.169Z,24.84
2023-06-15T13:51:01.178Z,23.33
2023-06-15T14:11:01.083Z,23.13
2023-06-15T14:31:01.293Z,23.87
2023-06-15T14:51:01.304Z,24.11
2023-06-15T15:11:01.318Z,23.87
2023-06-15T15:31:01.241Z,24.02
2023-06-15T15:51:01.264Z,24.19
2023-06-15T16:11:01.160Z,24.17
2023-06-15T16:31:00.905Z,23.72
2023-06-15T16:51:00.903Z,23.28
2023-06-15T17:11:00.890Z,22.82
2023-06-15T17:31:00.786Z,22.76
2023-06-15T17:51:00.782Z,22.64
2023-06-15T18:11:00.781Z,22.29
2023-06-15T18:31:00.684Z,21.75
2023-06-15T18:51:00.678Z,20.97
2023-06-15T19:11:00.670Z,19.86
2023-06-15T19:31:00.671Z,18.75
2023-06-15T19:51:00.657Z,18.03
2023-06-15T20:11:00.551Z,18.00
2023-06-15T20:31:00.545Z,17.85
2023-06-15T20:51:00.572Z,17.50
2023-06-15T21:11:00.519Z,17.29
2023-06-15T21:31:00.508Z,17.16
2023-06-15T21:51:00.523Z,16.85
2023-06-15T22:11:00.402Z,16.12
2023-06-15T22:31:00.408Z,15.68
2023-06-15T22:51:00.400Z,15.65
2023-06-15T23:11:00.398Z,15.26
2023-06-15T23:31:00.390Z,15.10
2023-06-15T23:51:00.280Z,14.78
